Aeroporto :
LOGIN :

Iscrizione | Disclaimer

   EN    FR    IT 

 










Sommario :    VFR   VFR Marginale   IFR   IFR Intensivo   IFR Molto Intensivo
Visibilità : 
Base nubi : 
>= 8 km
>= 3000ft
5 / 8 km
1000 / 3000 ft
1500m / 5 km
500 / 1000 ft
800 / 1500m
200 / 500 ft
< 800m
< 200 ft
Simboli :   Temporali  Nebbia  Neve Forte  Precipitazioni Forti  Vento > 20 kt
SIGMETs :   Varie  Temporali  Ghiacco  Turbolenza  Onda orograficha  Ceneri Vulcaniche






- Altitudine del aeroporto : 1906 ft
- Codice IATA : INN


LOWI - Innsbruck

ULTIMO METAR :
  • 121750Z VRB04KT 9999 FEW070 24/15 Q1017 NOSIG

METARs OBSOLETI :
  • 121720Z VRB05KT 9999 FEW070 SCT120 25/15 Q1017 NOSIG
  • 121650Z 13011KT 100V160 9999 FEW070 FEW070CB SCT120 25/15 Q1017 NOSIG
  • 121620Z VRB02KT 9999 FEW070 FEW070CB SCT120 24/18 Q1017 NOSIG
  • 121550Z 29007KT 9999 VCTS SCT070 FEW070CB BKN110 24/17 Q1017 NOSIG
  • 121520Z 27015KT 9999 -SHRA SCT070 FEW070CB BKN110 23/17 Q1017 NOSIG

TAF TAF LOWI
Valido dal 12 a 18 ore il 13 a 18 ore UTC


121715Z 1218/1318 08008KT 9999 SCT070 SCT120 TX28/1314Z TN17/1303Z
BECMG 1310/1312 10007KT SCT070CB
TEMPO 1310/1318 VRB15G25KT -TSRA BKN060CB



MetMap, La meteo Aeronautica in un colpo d'occhio ! - Copyright ORBIFLY Dicembre 2007 - Disclaimer

ORBIFLY MET'MAP TEAM :

Programmazione e sviluppo : Alexandra Zaïnal
Concezione : Baudouin d'Aumeries
Aiuto per la programmazione : Marc-Olivier Méhu
Supporto tecnico e logistico : Manuel Goepfert
Aiuto per la traduzione : Arnaldo La Scala

Contatto : metmap@orbifly.com




FONTI E CREDITI :

   NOAA